Latest Weather Observations for Braidwood

IDN60801

Issued at 1:43 am EDT Thursday 30 January 2020 (issued every 10 minutes, with the page automatically refreshed every 10 minutes)

About weather observations | Map of weather stations | Latest weather observations for NSW | Other Formats
Station Details ID: 069132 Name: BRAIDWOOD RACECOURSE AWS Lat: -35.43 Lon: 149.78 Height: 665.2 m
Data from the previous 72 hours. | See also: Recent months at Braidwood
Date/Time
EDT
Temp
°C
App
Temp
°C
Dew
Point
°C
Rel
Hum
%
Delta-T
°C
Wind Press
QNH
hPa
Press
MSL
hPa
Rain since
9am
mm
Dir  Spd
km/h
Gust
km/h
Spd
kts
Gust
kts
30/01:30am 13.5 14.2 12.1 91 0.8 CALM 0 0 0 0 1020.0 1017.1 0.2
30/01:00am 14.1 15.0 12.8 92 0.7 CALM 0 0 0 0 1020.3 1017.4 0.2
30/12:30am 14.4 15.3 12.8 90 0.9 CALM 0 0 0 0 1020.6 1017.6 0.2
30/12:00am 14.8 15.7 12.8 88 1.1 CALM 0 0 0 0 1020.8 1017.9 0.2
 
Date/Time
EDT
Temp
°C
App
Temp
°C
Dew
Point
°C
Rel
Hum
%
Delta-T
°C
Wind Press
QNH
hPa
Press
MSL
hPa
Rain since
9am
mm
Dir  Spd
km/h
Gust
km/h
Spd
kts
Gust
kts
29/11:30pm 15.3 16.4 13.5 89 1.0 CALM 0 0 0 0 1020.9 1018.0 0.2
29/11:00pm 15.3 15.5 13.0 86 1.3 ESE 4 6 2 3 1021.0 1018.1 0.2
29/10:30pm 16.2 16.0 13.7 85 1.5 ESE 7 9 4 5 1021.0 1018.1 0.2
29/10:00pm 16.7 16.1 13.4 81 1.9 ESE 9 11 5 6 1020.9 1018.0 0.2
29/09:30pm 17.5 16.9 13.4 77 2.4 ESE 9 13 5 7 1020.6 1017.6 0.2
29/09:00pm 18.1 17.4 13.2 73 2.8 SE 9 13 5 7 1020.3 1017.4 0.2
29/08:30pm 18.7 17.2 13.1 70 3.3 ESE 13 17 7 9 1020.0 1017.1 0.2
29/08:00pm 19.6 18.0 12.8 65 3.9 ESE 13 17 7 9 1019.6 1016.7 0.2
29/07:30pm 20.6 18.3 13.1 62 4.4 ESE 17 20 9 11 1019.1 1016.1 0.2
29/07:00pm 21.6 19.0 13.2 59 5.0 ESE 19 22 10 12 1018.7 1015.8 0.2
29/06:30pm 22.2 19.3 13.0 56 5.4 ESE 20 26 11 14 1018.4 1015.5 0.2
29/06:00pm 23.1 20.2 13.0 53 6.0 ESE 20 26 11 14 1018.2 1015.3 0.2
29/05:30pm 23.8 20.5 12.8 50 6.5 ESE 22 28 12 15 1018.2 1015.3 0.2
29/05:00pm 24.4 20.6 12.4 47 7.1 ESE 24 32 13 17 1018.2 1015.3 0.2
29/04:30pm 24.9 20.1 11.5 43 7.8 ESE 28 35 15 19 1018.0 1015.1 0.2
29/04:00pm 26.2 22.1 11.5 40 8.6 SE 24 35 13 19 1017.9 1014.9 0.2
29/03:30pm 27.0 22.3 11.9 39 8.9 ESE 28 37 15 20 1017.7 1014.7 0.2
29/03:00pm 27.6 23.8 11.2 36 9.6 ESE 22 33 12 18 1017.5 1014.5 0.2
29/02:30pm 28.7 25.4 11.7 35 10.1 ESE 20 33 11 18 1017.4 1014.4 0.2
29/02:00pm 28.4 25.1 11.0 34 10.2 ESE 19 28 10 15 1017.5 1014.5 0.2
29/01:30pm 28.1 25.5 7.9 28 11.3 E 11 28 6 15 1017.5 1014.5 0.2
29/01:00pm 26.8 25.1 8.3 31 10.3 E 7 15 4 8 1017.9 1014.9 0.2
29/12:30pm 26.3 24.3 8.8 33 9.8 E 9 24 5 13 1018.3 1015.4 0.2
29/12:00pm 25.7 24.4 9.1 35 9.3 NNE 6 11 3 6 1018.5 1015.6 0.2
29/11:30am 24.2 23.0 9.4 39 8.3 NNW 6 11 3 6 1019.0 1016.0 0.2
29/11:00am 23.5 22.6 11.2 46 7.1 NE 7 11 4 6 1019.2 1016.2 0.2
29/10:30am 22.4 21.8 11.8 51 6.1 N 6 9 3 5 1019.2 1016.2 0.0
29/10:00am 21.9 21.7 11.9 53 5.8 NNE 4 7 2 4 1019.1 1016.1 0.0
29/09:30am 19.5 19.7 13.2 67 3.7 NNE 4 7 2 4 1019.2 1016.2 0.0
29/09:00am 17.4 18.6 15.0 86 1.4 NNW 2 6 1 3 1019.2 1016.2 0.0
29/08:30am 15.4 17.0 14.8 96 0.4 CALM 0 2 0 1 1019.0 1016.0 0.0
29/08:23am 15.1 16.5 14.5 96 0.4 CALM 0 0 0 0 1018.8 1015.9 0.0
29/08:00am 13.9 14.9 13.3 96 0.3 CALM 0 0 0 0 1018.6 1015.7 0.0
29/07:30am 12.2 12.7 11.6 96 0.3 CALM 0 0 0 0 1018.6 1015.7 0.0
29/07:00am 11.5 11.8 10.9 96 0.3 CALM 0 0 0 0 1018.4 1015.5 0.0
29/06:30am 10.9 11.0 10.1 95 0.4 CALM 0 0 0 0 1018.4 1015.5 0.0
29/06:00am 11.0 11.1 10.2 95 0.4 CALM 0 0 0 0 1018.0 1015.1 0.0
29/05:30am 11.3 11.5 10.5 95 0.4 CALM 0 0 0 0 1018.0 1015.1 0.0
29/05:00am 11.7 12.0 10.9 95 0.4 CALM 0 0 0 0 1018.1 1015.2 0.0
29/04:30am 11.7 12.0 10.8 94 0.5 CALM 0 0 0 0 1017.9 1014.9 0.0
29/04:00am 12.3 12.7 11.4 94 0.5 CALM 0 0 0 0 1018.0 1015.1 0.0
29/03:30am 12.7 13.3 11.8 94 0.5 CALM 0 0 0 0 1018.0 1015.1 0.0
29/03:27am 12.7 13.3 11.8 94 0.5 CALM 0 0 0 0 1017.9 1014.9 0.0
29/03:00am 13.4 14.2 12.5 94 0.5 CALM 0 0 0 0 1018.3 1015.4 0.0
29/02:30am 13.6 14.4 12.5 93 0.6 CALM 0 0 0 0 1018.3 1015.4 0.0
29/02:00am 14.2 15.2 13.1 93 0.6 CALM 0 0 0 0 1018.4 1015.5 0.0
29/01:30am 14.8 15.0 13.2 90 0.9 SSW 4 4 2 2 1018.5 1015.6 0.0
29/01:00am 15.7 16.3 14.2 91 0.9 SSW 4 6 2 3 1018.7 1015.8 0.0
29/12:30am 16.4 17.2 14.9 91 0.9 SE 4 6 2 3 1018.7 1015.8 0.0
29/12:00am 16.8 17.7 15.2 90 1.0 SE 4 6 2 3 1018.8 1015.9 0.0
 
Date/Time
EDT
Temp
°C
App
Temp
°C
Dew
Point
°C
Rel
Hum
%
Delta-T
°C
Wind Press
QNH
hPa
Press
MSL
hPa
Rain since
9am
mm
Dir  Spd
km/h
Gust
km/h
Spd
kts
Gust
kts
28/11:38pm 16.8 17.2 15.3 91 0.9 ESE 7 9 4 5 1019.0 1016.0 0.0
28/11:30pm 16.9 17.4 15.6 92 0.8 ESE 7 9 4 5 1019.0 1016.0 0.0
28/11:00pm 17.0 17.7 16.0 94 0.6 SE 7 11 4 6 1019.0 1016.0 0.0
28/10:30pm 16.9 17.6 16.1 95 0.5 SE 7 11 4 6 1018.6 1015.7 0.0
28/10:00pm 16.8 16.7 16.0 95 0.5 SSE 11 17 6 9 1018.5 1015.6 0.0
28/09:30pm 17.0 17.4 16.2 95 0.5 SSE 9 15 5 8 1018.2 1015.3 0.0
28/09:00pm 17.1 17.0 16.1 94 0.6 SE 11 15 6 8 1018.0 1015.1 0.0
28/08:30pm 17.8 17.8 16.3 91 0.9 SSE 11 17 6 9 1017.4 1014.4 0.0
28/08:00pm 17.5 17.4 16.0 91 0.9 SE 11 17 6 9 1017.0 1014.1 0.0
28/07:30pm 17.5 16.2 15.8 90 1.0 SE 17 24 9 13 1016.5 1013.5 0.0
28/07:00pm 17.8 16.0 15.6 87 1.3 SSE 19 26 10 14 1016.0 1013.0 0.0
28/06:30pm 18.2 16.8 15.6 85 1.6 SSE 17 24 9 13 1015.2 1012.2 0.0
28/06:00pm 19.2 18.0 16.2 83 1.8 SE 17 26 9 14 1014.8 1011.8 0.0
28/05:30pm 19.7 17.5 16.0 79 2.3 SE 22 30 12 16 1014.6 1011.6 0.0
28/05:00pm 20.1 17.9 15.9 77 2.6 SE 22 30 12 16 1014.0 1011.1 0.0
28/04:55pm 20.2 17.6 15.8 76 2.7 SE 24 32 13 17 1014.0 1011.1 0.0
28/04:30pm 21.6 18.6 15.9 70 3.5 SE 26 33 14 18 1013.5 1010.5 0.0
28/04:00pm 24.4 22.0 15.3 57 5.6 SE 22 32 12 17 1013.3 1010.3 0.0
28/03:39pm 28.4 23.9 10.1 32 10.6 W 24 35 13 19 1013.0 1010.0 0.0
28/03:30pm 34.2 27.1 -4.7 8 18.3 NW 24 35 13 19 1012.6 1009.5 0.0
28/03:00pm 33.9 26.9 -0.7 11 17.3 W 26 41 14 22 1012.9 1009.9 0.0
28/02:30pm 33.3 27.3 1.2 13 16.5 WNW 22 39 12 21 1013.3 1010.3 0.0
28/02:00pm 32.5 26.8 -0.5 12 16.4 WNW 19 30 10 16 1013.6 1010.6 0.0
28/01:30pm 32.1 26.7 2.2 15 15.5 WNW 20 32 11 17 1013.7 1010.7 0.0
28/01:00pm 30.6 25.3 1.9 16 14.7 WNW 19 32 10 17 1013.9 1011.0 0.0
28/12:30pm 29.8 27.7 9.9 29 11.5 NW 11 22 6 12 1014.0 1011.1 0.0
28/12:00pm 28.9 26.3 10.6 32 10.7 NW 15 24 8 13 1014.3 1011.3 0.0
28/11:30am 27.7 28.1 15.4 47 7.7 NNW 7 20 4 11 1014.3 1011.3 0.0
28/11:00am 26.4 27.4 16.9 56 6.1 N 7 17 4 9 1014.5 1011.5 0.0
28/10:30am 25.2 26.3 17.1 60 5.2 N 7 15 4 8 1014.9 1011.9 0.0
28/10:19am 24.4 25.6 16.9 63 4.8 N 6 11 3 6 1015.1 1012.1 0.0
28/10:00am 24.2 25.7 17.7 67 4.2 NNW 6 11 3 6 1015.5 1012.6 0.0
28/09:30am 22.6 24.2 17.9 75 3.0 N 6 11 3 6 1015.8 1012.8 0.0
28/09:00am 20.9 23.8 18.1 84 1.8 CALM 0 0 0 0 1015.9 1012.9 0.0
28/08:30am 20.4 23.2 18.0 86 1.5 CALM 0 0 0 0 1015.9 1012.9 0.0
28/08:00am 19.8 22.5 17.8 88 1.3 CALM 0 0 0 0 1016.0 1013.0 0.0
28/07:30am 19.5 22.2 17.8 90 1.1 CALM 0 0 0 0 1015.5 1012.6 0.0
28/07:00am 19.0 21.7 17.7 92 0.8 CALM 0 0 0 0 1015.4 1012.5 0.0
28/06:30am 18.7 21.3 17.5 93 0.8 CALM 0 0 0 0 1015.5 1012.6 0.0
28/06:00am 18.6 20.5 17.6 94 0.6 SSE 4 6 2 3 1015.3 1012.4 0.0
28/05:30am 18.5 19.8 17.5 94 0.6 ESE 7 9 4 5 1015.0 1012.0 0.0
28/05:00am 18.7 19.7 17.7 94 0.6 ESE 9 13 5 7 1015.0 1012.0 0.0
28/04:30am 18.9 20.3 17.9 94 0.6 SE 7 9 4 5 1015.3 1012.4 0.0
28/04:00am 19.0 20.7 18.0 94 0.6 SE 6 7 3 4 1015.2 1012.2 0.0
28/03:30am 19.1 20.7 17.8 92 0.8 ESE 6 7 3 4 1015.5 1012.6 0.0
28/03:00am 19.8 21.7 17.6 87 1.4 E 4 7 2 4 1015.6 1012.7 0.0
28/02:30am 19.7 21.5 17.5 87 1.4 ESE 4 7 2 4 1016.0 1013.0 0.0
28/02:01am 19.7 21.3 17.8 89 1.2 ESE 6 7 3 4 1016.0 1013.0 0.0
28/02:00am 19.7 21.3 17.8 89 1.2 ESE 6 7 3 4 1016.0 1013.0 0.0
28/01:32am 19.5 21.5 17.8 90 1.1 SE 4 6 2 3 1016.1 1013.1 0.0
28/01:30am 19.5 21.5 17.8 90 1.1 SE 4 6 2 3 1016.1 1013.1 0.0
28/01:00am 19.5 21.5 17.8 90 1.1 SE 4 7 2 4 1016.3 1013.3 0.0
28/12:46am 19.5 21.5 17.8 90 1.1 SE 4 6 2 3 1016.4 1013.4 0.0
28/12:34am 19.4 21.8 17.9 91 0.9 ESE 2 4 1 2 1016.6 1013.7 0.0
28/12:30am 19.4 21.4 17.9 91 0.9 E 4 6 2 3 1016.5 1013.5 0.0
28/12:00am 19.4 21.1 18.1 92 0.8 ESE 6 6 3 3 1017.0 1014.1 0.0
 
Date/Time
EDT
Temp
°C
App
Temp
°C
Dew
Point
°C
Rel
Hum
%
Delta-T
°C
Wind Press
QNH
hPa
Press
MSL
hPa
Rain since
9am
mm
Dir  Spd
km/h
Gust
km/h
Spd
kts
Gust
kts
27/11:30pm 19.4 21.1 18.1 92 0.8 SSE 6 9 3 5 1017.2 1014.3 0.0
27/11:00pm 19.3 20.8 18.0 92 0.8 SE 7 11 4 6 1017.6 1014.6 0.0
27/10:30pm 19.4 20.8 17.9 91 0.9 SSE 7 13 4 7 1017.8 1014.8 0.0
27/10:00pm 20.1 20.9 18.1 88 1.3 SSE 11 15 6 8 1017.6 1014.6 0.0
27/09:30pm 20.1 20.8 17.9 87 1.4 SE 11 15 6 8 1017.1 1014.2 0.0
27/09:00pm 20.1 20.7 17.7 86 1.5 SE 11 17 6 9 1017.0 1014.1 0.0
27/08:30pm 20.4 21.0 17.8 85 1.6 SE 11 19 6 10 1016.7 1013.8 0.0
27/08:00pm 20.3 20.2 17.9 86 1.5 SE 15 20 8 11 1016.2 1013.2 0.0
27/07:33pm 20.3 19.4 17.7 85 1.6 SE 19 30 10 16 1015.9 1012.9 0.0
27/07:30pm 20.4 19.5 17.8 85 1.6 SE 19 32 10 17 1015.6 1012.7 0.0
27/07:00pm 22.7 21.2 16.7 69 3.8 SE 20 28 11 15 1014.7 1011.7 0.0
27/06:30pm 24.2 21.1 16.5 62 4.8 ESE 28 35 15 19 1013.6 1010.6 0.0
27/06:00pm 27.3 25.4 16.6 52 6.8 SE 22 35 12 19 1013.2 1010.2 0.0
27/05:30pm 29.0 26.9 15.2 43 8.7 SE 20 32 11 17 1012.8 1009.8 0.0
27/05:26pm 29.5 27.3 14.5 40 9.3 ESE 19 32 10 17 1012.7 1009.7 0.0
27/05:00pm 34.6 30.7 1.1 12 17.3 NW 11 24 6 13 1012.6 1009.5 0.0
27/04:30pm 35.3 31.5 3.8 14 17.0 NNW 13 30 7 16 1012.4 1009.4 0.0
27/04:00pm 33.9 28.9 3.7 15 16.2 NW 19 30 10 16 1012.7 1009.7 0.0
27/03:30pm 33.1 28.0 3.0 15 15.9 WNW 19 32 10 17 1013.0 1010.0 0.0
27/03:00pm 33.7 30.0 2.5 14 16.4 NW 11 22 6 12 1013.3 1010.3 0.0
27/02:30pm 32.4 27.7 3.4 16 15.4 W 17 28 9 15 1013.8 1010.8 0.0
27/02:00pm 32.1 27.9 5.6 19 14.5 WNW 17 33 9 18 1014.4 1011.4 0.0
27/01:30pm 30.7 26.5 8.4 25 12.7 NW 20 37 11 20 1014.9 1011.9 0.0
27/01:00pm 29.1 29.4 14.5 41 9.1 NNE 6 13 3 7 1015.4 1012.5 0.0
27/12:30pm 27.7 28.0 15.0 45 7.9 N 7 13 4 7 1016.3 1013.3 0.0
27/12:00pm 24.4 24.8 15.3 57 5.6 E 7 13 4 7 1016.7 1013.8 0.0
27/11:30am 24.1 24.6 15.1 57 5.5 NNE 6 11 3 6 1017.1 1014.2 0.0
27/11:00am 21.9 23.1 14.8 64 4.3 NW 2 7 1 4 1017.5 1014.5 0.0
27/10:59am 21.7 22.8 14.6 64 4.3 NW 2 7 1 4 1017.5 1014.5 0.0
27/10:30am 20.7 22.2 14.6 68 3.7 CALM 0 0 0 0 1017.7 1014.7 0.0
27/10:00am 19.3 20.7 14.3 73 3.0 CALM 0 0 0 0 1018.0 1015.1 0.0
27/09:30am 18.3 19.6 14.0 76 2.5 CALM 0 0 0 0 1018.2 1015.3 0.0
27/09:00am 18.0 19.3 14.1 78 2.3 CALM 0 0 0 0 1018.1 1015.2 0.0
27/08:30am 17.3 18.6 14.0 81 1.9 CALM 0 0 0 0 1018.1 1015.2 0.0
27/08:00am 17.0 17.0 13.5 80 2.0 S 6 9 3 5 1018.0 1015.1 0.0
27/07:30am 17.0 18.0 13.1 78 2.3 CALM 0 0 0 0 1018.1 1015.2 0.0
27/07:00am 16.9 17.4 12.8 77 2.4 ESE 2 4 1 2 1017.9 1014.9 0.0
27/06:30am 16.9 17.3 12.6 76 2.5 SE 2 4 1 2 1017.8 1014.8 0.0
27/06:00am 16.7 17.4 12.3 75 2.5 CALM 0 0 0 0 1017.8 1014.8 0.0
27/05:30am 16.7 16.9 12.0 74 2.7 SSE 2 4 1 2 1017.5 1014.5 0.0
27/05:25am 16.6 16.8 12.0 74 2.6 S 2 4 1 2 1017.5 1014.5 0.0
27/05:00am 16.5 16.6 11.4 72 2.8 S 2 4 1 2 1017.5 1014.5 0.0
27/04:30am 16.3 16.5 10.6 69 3.1 CALM 0 0 0 0 1017.0 1014.1 0.0
27/04:00am 15.9 15.4 10.9 72 2.8 SE 4 6 2 3 1017.0 1014.1 0.0
27/03:32am 15.0 14.0 10.4 74 2.5 SE 6 6 3 3 1017.1 1014.2 0.0
27/03:30am 15.0 14.4 10.4 74 2.5 SE 4 6 2 3 1017.1 1014.2 0.0
27/03:00am 15.7 14.6 10.0 69 3.1 SSE 6 9 3 5 1017.0 1014.1 0.0
27/02:57am 15.8 14.7 10.1 69 3.1 SSE 6 9 3 5 1017.0 1014.1 0.0
27/02:30am 16.0 14.7 9.9 67 3.3 S 7 9 4 5 1017.2 1014.3 0.0
27/02:00am 16.3 14.8 10.6 69 3.1 SSW 9 13 5 7 1017.6 1014.6 0.0

Other formats

Comma delimited format used in spreadsheet applications
http://www.bom.gov.au/fwo/IDN60801/IDN60801.94927.axf

JavaScript Object Notation format (JSON) in row-major order
http://www.bom.gov.au/fwo/IDN60801/IDN60801.94927.json

Data quality

Most of these data are generated automatically and are frequently updated. Quality checks on data are not normally performed. It is possible for incorrect values to appear. Refer to information at About Latest Weather Observations and please check the disclaimer before using these data.